Time;durP1;ratioP1;P1;durP2;ratioP2;P2;SDS_P1;SDS_P2;PMS_P1;PMS_P2;Temp;Humidity;BMP_temperature;BMP_pressure;BME280_temperature;BME280_humidity;BME280_pressure;Samples;Min_cycle;Max_cycle;Signal;HPM_P1;HPM_P2
2022/09/27 00:01:34;;;;;;;12.03;2.70;;;13.30;1.00;;;;;;5009931;28;20210;-64
2022/09/27 00:04:00;;;;;;;3.93;2.03;;;13.30;99.90;;;;;;5010063;28;20200;-64
2022/09/27 00:06:28;;;;;;;3.00;2.03;;;13.20;1.00;;;;;;5010409;28;20276;-64
2022/09/27 00:08:55;;;;;;;4.03;2.10;;;13.20;99.90;;;;;;5010937;28;20415;-65
2022/09/27 00:11:36;;;;;;;6.70;2.10;;;13.20;99.90;;;;;;5009606;28;20450;-63
2022/09/27 00:14:03;;;;;;;3.90;2.00;;;13.10;1.00;;;;;;5010039;28;20458;-65
2022/09/27 00:16:31;;;;;;;3.83;1.70;;;13.10;1.00;;;;;;5010495;28;20399;-65
2022/09/27 00:19:01;;;;;;;6.53;2.10;;;13.00;1.00;;;;;;4992508;28;20490;-64
2022/09/27 00:21:29;;;;;;;5.43;1.60;;;13.00;1.00;;;;;;5010408;28;20808;-65
2022/09/27 00:23:55;;;;;;;6.67;2.17;;;13.00;1.00;;;;;;5009768;28;20458;-64
2022/09/27 00:26:21;;;;;;;10.53;1.90;;;13.00;1.00;;;;;;5008829;28;20447;-64
2022/09/27 00:28:47;;;;;;;8.40;2.43;;;13.10;99.90;;;;;;5008891;28;20942;-64
2022/09/27 00:31:32;;;;;;;1.73;1.57;;;13.00;1.00;;;;;;5009294;28;20199;-65
2022/09/27 00:34:01;;;;;;;4.57;2.00;;;12.90;99.90;;;;;;5009657;28;20818;-65
2022/09/27 00:36:28;;;;;;;4.13;2.30;;;12.90;99.90;;;;;;5009690;28;20415;-64
2022/09/27 00:38:54;;;;;;;5.90;1.83;;;12.80;1.00;;;;;;5009562;28;20407;-64
2022/09/27 00:41:26;;;;;;;3.83;1.70;;;12.90;1.00;;;;;;5009440;28;20422;-65
2022/09/27 00:43:57;;;;;;;1.70;1.53;;;12.90;1.00;;;;;;5008875;28;20490;-63
2022/09/27 00:46:55;;;;;;;2.90;1.90;;;12.90;1.00;;;;;;5009685;28;20414;-64
2022/09/27 00:49:35;;;;;;;3.70;1.90;;;12.90;1.00;;;;;;4965895;28;20415;-63
2022/09/27 00:52:10;;;;;;;5.10;2.00;;;12.90;1.00;;;;;;5008945;28;20395;-63
2022/09/27 00:54:39;;;;;;;2.63;1.80;;;12.90;1.00;;;;;;5009645;28;21106;-63
2022/09/27 00:57:05;;;;;;;3.77;1.63;;;12.80;99.90;;;;;;5012784;28;20473;-63
2022/09/27 00:59:48;;;;;;;5.00;1.63;;;12.90;1.00;;;;;;5013862;28;20407;-63
2022/09/27 01:02:14;;;;;;;1.93;1.43;;;12.70;1.00;;;;;;4994725;28;20238;-62
2022/09/27 01:04:41;;;;;;;2.63;1.40;;;12.80;99.90;;;;;;4993512;28;21011;-63
2022/09/27 01:07:07;;;;;;;2.20;1.50;;;12.80;99.90;;;;;;4993415;28;20177;-63
2022/09/27 01:09:33;;;;;;;1.70;1.20;;;12.80;1.00;;;;;;4994077;28;20557;-64
2022/09/27 01:12:14;;;;;;;4.03;1.53;;;12.80;1.00;;;;;;4992719;28;20168;-63
2022/09/27 01:14:59;;;;;;;3.10;1.60;;;12.70;1.00;;;;;;4993823;28;20846;-63
2022/09/27 01:17:36;;;;;;;2.37;1.20;;;12.70;1.00;;;;;;4993672;28;20400;-63
2022/09/27 01:20:41;;;;;;;3.00;1.30;;;12.70;99.90;;;;;;4993701;28;20455;-63
2022/09/27 01:23:45;;;;;;;9.07;2.67;;;12.70;1.00;;;;;;4993382;28;20499;-62
2022/09/27 01:26:32;;;;;;;6.83;1.27;;;12.70;99.90;;;;;;4928407;28;20542;-62
2022/09/27 01:29:14;;;;;;;3.07;1.30;;;12.80;1.00;;;;;;4992786;28;20404;-62
2022/09/27 01:31:57;;;;;;;6.40;1.20;;;12.70;99.90;;;;;;4992617;28;20408;-63
2022/09/27 01:34:33;;;;;;;1.60;1.10;;;12.50;1.00;;;;;;4993197;28;20463;-62
2022/09/27 01:37:41;;;;;;;1.77;1.40;;;12.60;99.90;;;;;;4991550;28;20422;-62
2022/09/27 01:40:23;;;;;;;1.53;0.90;;;12.50;1.00;;;;;;4955932;28;20825;-63
2022/09/27 01:42:55;;;;;;;4.33;1.30;;;12.40;1.00;;;;;;4992253;28;20412;-62
2022/09/27 01:45:31;;;;;;;2.53;1.67;;;12.40;1.00;;;;;;4993485;28;20898;-63
2022/09/27 01:48:01;;;;;;;14.87;3.37;;;12.40;1.00;;;;;;4993073;28;20495;-62
2022/09/27 01:50:36;;;;;;;2.93;1.60;;;12.40;13.30;;;;;;4992607;28;20988;-62
2022/09/27 01:53:39;;;;;;;10.23;1.57;;;12.40;99.90;;;;;;4993135;28;20391;-63
2022/09/27 01:56:13;;;;;;;2.50;1.40;;;12.40;99.90;;;;;;4949419;28;20769;-62
2022/09/27 01:58:48;;;;;;;1.80;1.20;;;12.50;14.80;;;;;;4991972;28;20407;-63
2022/09/27 02:01:17;;;;;;;1.77;1.40;;;12.40;85.30;;;;;;4991905;28;20857;-63
2022/09/27 02:03:47;;;;;;;2.50;1.50;;;12.40;99.90;;;;;;4990989;28;20899;-63
2022/09/27 02:06:20;;;;;;;9.17;2.03;;;12.40;99.90;;;;;;4992615;28;20498;-63
2022/09/27 02:08:54;;;;;;;4.40;2.10;;;12.40;99.90;;;;;;4992673;28;20412;-63
2022/09/27 02:11:20;;;;;;;1.80;1.40;;;12.30;1.00;;;;;;4992093;28;20412;-64
2022/09/27 02:13:52;;;;;;;3.63;1.77;;;12.30;1.00;;;;;;4992024;28;20952;-64
2022/09/27 02:16:52;;;;;;;2.07;1.50;;;12.30;1.00;;;;;;4992957;28;20173;-64
2022/09/27 02:19:17;;;;;;;1.87;1.63;;;12.40;1.00;;;;;;4992541;28;20427;-64
2022/09/27 02:22:19;;;;;;;4.70;1.80;;;12.50;99.90;;;;;;4992009;28;20406;-64
2022/09/27 02:24:57;;;;;;;2.53;2.10;;;12.40;99.90;;;;;;4992222;28;20196;-64
2022/09/27 02:27:29;;;;;;;9.93;2.67;;;12.50;99.90;;;;;;4991647;28;20404;-64
2022/09/27 02:30:15;;;;;;;2.00;1.40;;;12.50;99.90;;;;;;4992515;28;20835;-63
2022/09/27 02:32:41;;;;;;;2.03;1.43;;;12.40;99.90;;;;;;4991702;28;20792;-64
2022/09/27 02:35:23;;;;;;;5.53;1.77;;;12.40;99.90;;;;;;4992356;28;20536;-64
2022/09/27 02:37:50;;;;;;;2.77;1.60;;;12.30;1.00;;;;;;4992045;28;20419;-64
2022/09/27 02:40:16;;;;;;;8.03;1.40;;;12.30;1.00;;;;;;4991787;28;20408;-64
2022/09/27 02:42:43;;;;;;;2.10;1.60;;;12.20;1.00;;;;;;4991202;28;20421;-63
2022/09/27 02:45:10;;;;;;;3.07;1.37;;;12.30;1.00;;;;;;4992068;28;20549;-64
2022/09/27 02:47:48;;;;;;;3.40;1.87;;;12.30;1.00;;;;;;4992084;28;20412;-63
2022/09/27 02:50:17;;;;;;;2.13;1.87;;;12.20;1.00;;;;;;4991665;28;20499;-64
2022/09/27 02:52:46;;;;;;;4.50;2.67;;;12.30;1.00;;;;;;4991560;28;20466;-63
2022/09/27 02:55:20;;;;;;;1.90;1.50;;;12.30;1.00;;;;;;4991839;28;20472;-63
2022/09/27 02:58:29;;;;;;;2.30;1.63;;;12.40;1.00;;;;;;4991297;28;20400;-64
2022/09/27 03:00:59;;;;;;;2.20;1.40;;;12.30;1.00;;;;;;4954299;28;20801;-63
2022/09/27 03:03:50;;;;;;;2.67;1.37;;;12.30;99.90;;;;;;4991456;28;20528;-64
2022/09/27 03:06:19;;;;;;;2.60;1.40;;;12.30;1.00;;;;;;4991514;28;20400;-64
2022/09/27 03:08:45;;;;;;;2.77;1.73;;;12.30;1.00;;;;;;4991774;28;20491;-64
2022/09/27 03:11:10;;;;;;;2.70;1.47;;;12.30;1.00;;;;;;4991038;28;20985;-62
2022/09/27 03:13:37;;;;;;;4.23;2.53;;;12.30;1.00;;;;;;4991318;28;20518;-62
2022/09/27 03:16:05;;;;;;;9.07;2.77;;;12.40;1.00;;;;;;4991713;28;20177;-62
2022/09/27 03:18:31;;;;;;;4.27;1.60;;;12.30;1.00;;;;;;4990778;28;20901;-63
2022/09/27 03:20:57;;;;;;;4.23;1.70;;;12.30;1.00;;;;;;4990602;28;20417;-63
2022/09/27 03:23:23;;;;;;;2.13;1.43;;;12.30;1.00;;;;;;4990971;28;20534;-63
2022/09/27 03:25:49;;;;;;;4.10;1.70;;;12.20;1.00;;;;;;4991372;28;20173;-63
2022/09/27 03:28:15;;;;;;;1.50;1.40;;;12.30;1.00;;;;;;4989118;28;20173;-62
2022/09/27 03:30:41;;;;;;;43.57;5.93;;;12.30;1.00;;;;;;4990300;28;20400;-62
2022/09/27 03:33:10;;;;;;;5.20;2.27;;;12.30;1.00;;;;;;4990861;28;20491;-62
2022/09/27 03:35:36;;;;;;;4.20;1.80;;;12.30;1.00;;;;;;4991407;28;20427;-63
2022/09/27 03:38:03;;;;;;;3.87;1.70;;;12.20;53.70;;;;;;4990895;28;20806;-63
2022/09/27 03:40:29;;;;;;;2.80;1.60;;;12.20;99.90;;;;;;4990527;28;20878;-62
2022/09/27 03:42:55;;;;;;;4.50;2.10;;;12.30;99.90;;;;;;4990290;28;20484;-63
2022/09/27 03:45:20;;;;;;;3.20;1.73;;;12.20;99.90;;;;;;4990761;28;20180;-63
2022/09/27 03:47:47;;;;;;;5.40;1.50;;;12.10;99.90;;;;;;4990610;28;20239;-62
2022/09/27 03:50:13;;;;;;;3.37;1.43;;;12.20;99.90;;;;;;4990445;28;20510;-63
2022/09/27 03:52:41;;;;;;;3.30;1.60;;;12.10;99.90;;;;;;4989883;28;20461;-63
2022/09/27 03:55:48;;;;;;;3.30;1.40;;;12.10;99.90;;;;;;4991104;28;20752;-63
2022/09/27 03:58:14;;;;;;;1.40;1.10;;;12.00;99.90;;;;;;4989726;28;20784;-62
2022/09/27 04:00:40;;;;;;;4.37;1.17;;;12.00;99.90;;;;;;4990069;28;20420;-62
2022/09/27 04:03:06;;;;;;;3.80;1.40;;;12.10;99.90;;;;;;4990706;28;20173;-62
2022/09/27 04:05:32;;;;;;;1.90;1.20;;;12.10;99.90;;;;;;4990850;28;20777;-62
2022/09/27 04:07:58;;;;;;;1.67;1.50;;;12.00;99.90;;;;;;4980541;28;20416;-63
2022/09/27 04:10:23;;;;;;;6.93;1.90;;;12.00;99.90;;;;;;4989231;28;20184;-63
2022/09/27 04:12:49;;;;;;;2.00;1.20;;;12.10;99.90;;;;;;4988679;28;20179;-62
2022/09/27 04:15:15;;;;;;;3.87;1.47;;;12.10;99.90;;;;;;4989811;28;20336;-63
2022/09/27 04:17:41;;;;;;;3.40;1.50;;;12.10;99.90;;;;;;4989321;28;20880;-64
2022/09/27 04:20:08;;;;;;;3.23;1.40;;;12.10;99.90;;;;;;4989275;28;20180;-64
2022/09/27 04:22:34;;;;;;;4.73;1.17;;;12.00;99.90;;;;;;4988532;28;20446;-64
2022/09/27 04:25:00;;;;;;;4.50;1.23;;;11.90;99.90;;;;;;4989565;28;20451;-63
2022/09/27 04:27:25;;;;;;;3.67;1.57;;;12.00;99.90;;;;;;4987697;28;20169;-63
2022/09/27 04:29:51;;;;;;;1.80;1.10;;;12.00;1.00;;;;;;4988392;28;20410;-62
2022/09/27 04:32:17;;;;;;;2.90;1.10;;;12.00;99.90;;;;;;4987771;28;20173;-63
2022/09/27 04:37:27;;;;;;;3.87;1.30;;;12.00;1.00;;;;;;4987773;28;20263;-66
2022/09/27 04:39:52;;;;;;;5.03;1.60;;;11.90;99.90;;;;;;4988475;28;20451;-65
2022/09/27 04:42:18;;;;;;;5.30;1.90;;;11.90;1.00;;;;;;4987797;28;20184;-66
2022/09/27 04:44:44;;;;;;;6.77;1.20;;;11.90;1.00;;;;;;4980043;28;20279;-66
2022/09/27 04:47:10;;;;;;;3.33;1.40;;;11.80;1.00;;;;;;4988436;28;20169;-66
2022/09/27 04:49:37;;;;;;;6.57;1.90;;;11.80;1.00;;;;;;4988444;28;20192;-66
2022/09/27 04:52:04;;;;;;;2.33;1.30;;;11.80;1.00;;;;;;4986570;28;20610;-66
2022/09/27 04:54:29;;;;;;;2.50;1.40;;;11.80;99.90;;;;;;4984593;28;20496;-65
2022/09/27 04:56:55;;;;;;;3.17;1.33;;;11.70;99.90;;;;;;4987565;28;20412;-67
2022/09/27 04:59:21;;;;;;;8.80;1.90;;;11.70;99.90;;;;;;4988897;28;20622;-66
2022/09/27 05:01:49;;;;;;;11.50;2.00;;;11.60;99.90;;;;;;4986562;28;20181;-66
2022/09/27 05:04:15;;;;;;;2.93;1.90;;;11.70;1.00;;;;;;4986153;28;21018;-65
2022/09/27 05:06:40;;;;;;;21.83;3.17;;;11.60;1.00;;;;;;4976391;28;20429;-65
2022/09/27 05:09:06;;;;;;;25.30;3.20;;;11.60;1.00;;;;;;4976097;28;20960;-67
2022/09/27 05:11:32;;;;;;;6.67;2.13;;;11.70;1.00;;;;;;4969729;28;20255;-69
2022/09/27 05:13:58;;;;;;;15.03;3.27;;;11.70;1.00;;;;;;4969745;28;20209;-67
2022/09/27 05:16:23;;;;;;;17.30;3.43;;;11.70;1.00;;;;;;4970165;28;20197;-67
2022/09/27 05:18:49;;;;;;;9.53;3.20;;;11.70;19.70;;;;;;4967203;28;20177;-69
2022/09/27 05:21:16;;;;;;;6.83;1.93;;;11.60;28.10;;;;;;4966773;28;20184;-65
2022/09/27 05:23:41;;;;;;;6.13;2.37;;;11.60;99.90;;;;;;4968777;28;20215;-66
2022/09/27 05:26:07;;;;;;;21.70;3.87;;;11.60;99.90;;;;;;4969721;28;20409;-67
2022/09/27 05:28:36;;;;;;;6.10;2.70;;;11.60;99.90;;;;;;4968568;28;20184;-66
2022/09/27 05:31:02;;;;;;;20.50;3.67;;;11.70;1.00;;;;;;4968911;28;20157;-66
2022/09/27 05:33:28;;;;;;;31.23;5.57;;;12.00;1.00;;;;;;4968900;28;20914;-66
2022/09/27 05:35:55;;;;;;;15.90;3.50;;;12.30;99.90;;;;;;4968550;28;20580;-66
2022/09/27 05:38:21;;;;;;;8.33;2.50;;;13.20;1.00;;;;;;4967888;28;20182;-67
2022/09/27 05:40:49;;;;;;;5.97;2.57;;;14.40;99.90;;;;;;4967772;28;20418;-66
2022/09/27 05:43:16;;;;;;;30.50;3.57;;;15.30;1.00;;;;;;4971688;28;20444;-68
2022/09/27 05:45:42;;;;;;;13.07;3.60;;;15.80;1.00;;;;;;4971321;28;20408;-67
2022/09/27 05:48:09;;;;;;;17.90;3.53;;;16.10;1.00;;;;;;4970695;28;20762;-67
2022/09/27 05:50:35;;;;;;;12.17;3.20;;;15.30;1.00;;;;;;4970905;28;20761;-66
2022/09/27 05:53:00;;;;;;;11.83;2.80;;;14.80;1.00;;;;;;4970821;28;20680;-66
2022/09/27 05:55:28;;;;;;;8.53;2.53;;;14.00;1.00;;;;;;4973334;28;20204;-67
2022/09/27 05:58:03;;;;;;;5.70;2.40;;;13.60;1.00;;;;;;4973127;28;20177;-67
2022/09/27 06:00:29;;;;;;;8.67;3.60;;;13.20;1.00;;;;;;4976033;28;20450;-66
2022/09/27 06:02:57;;;;;;;21.63;3.70;;;12.80;99.90;;;;;;4997568;28;20494;-66
2022/09/27 06:05:24;;;;;;;17.87;3.90;;;12.50;1.00;;;;;;5009537;28;20498;-66
2022/09/27 06:07:50;;;;;;;4.00;2.33;;;12.40;1.00;;;;;;5001143;28;20404;-67
2022/09/27 06:10:17;;;;;;;10.03;2.33;;;12.30;99.90;;;;;;4991502;28;20792;-67
2022/09/27 06:12:43;;;;;;;5.20;2.00;;;12.20;1.00;;;;;;4991529;28;20404;-67
2022/09/27 06:15:09;;;;;;;13.07;3.33;;;12.10;1.00;;;;;;4991917;28;20975;-67
2022/09/27 06:17:35;;;;;;;12.17;3.20;;;12.10;99.90;;;;;;4993985;28;20188;-67
2022/09/27 06:20:02;;;;;;;17.77;3.40;;;11.90;1.00;;;;;;5008892;28;20426;-66
2022/09/27 06:22:27;;;;;;;14.10;3.47;;;11.90;1.00;;;;;;5010444;28;20254;-67
2022/09/27 06:24:53;;;;;;;9.43;1.90;;;11.90;99.90;;;;;;5010502;28;20955;-67
2022/09/27 06:27:19;;;;;;;11.47;1.93;;;11.90;1.00;;;;;;5010790;28;20172;-67
2022/09/27 06:29:45;;;;;;;13.57;3.57;;;11.80;1.00;;;;;;5011577;28;20218;-66
2022/09/27 06:32:12;;;;;;;28.90;4.63;;;11.70;1.00;;;;;;5010652;28;20173;-67
2022/09/27 06:34:38;;;;;;;11.47;3.30;;;11.70;1.00;;;;;;5011150;28;20450;-67
2022/09/27 06:37:04;;;;;;;10.10;1.60;;;11.70;1.00;;;;;;5011390;28;20932;-67
2022/09/27 06:39:32;;;;;;;5.63;2.03;;;11.60;99.90;;;;;;5011323;28;20392;-67
2022/09/27 06:41:58;;;;;;;16.43;3.73;;;11.80;99.90;;;;;;5009938;28;20184;-66
2022/09/27 06:44:24;;;;;;;11.03;2.07;;;11.80;1.00;;;;;;5011222;28;20459;-67
2022/09/27 06:46:54;;;;;;;25.27;3.90;;;11.80;1.00;;;;;;5011339;28;20413;-67
2022/09/27 06:49:24;;;;;;;14.13;2.73;;;11.80;1.00;;;;;;5011358;28;20438;-65
2022/09/27 06:51:51;;;;;;;12.63;3.10;;;11.80;1.00;;;;;;5010354;28;20403;-66
2022/09/27 06:54:17;;;;;;;6.93;2.30;;;11.80;1.00;;;;;;5009859;28;20423;-67
2022/09/27 06:56:46;;;;;;;17.70;3.00;;;11.90;99.90;;;;;;5010908;28;20928;-67
2022/09/27 07:01:55;;;;;;;11.10;2.27;;;12.20;99.90;;;;;;4985652;28;20901;-67
2022/09/27 07:04:42;;;;;;;19.83;3.63;;;12.30;99.90;;;;;;4971663;28;20509;-67
2022/09/27 07:07:08;;;;;;;4.70;1.90;;;12.30;99.90;;;;;;4971795;28;20170;-67
2022/09/27 07:09:33;;;;;;;4.13;1.53;;;12.30;99.90;;;;;;4971623;28;20409;-66
2022/09/27 07:11:59;;;;;;;12.53;1.80;;;12.20;99.90;;;;;;4970364;28;20764;-66
2022/09/27 07:14:25;;;;;;;18.03;2.80;;;12.00;99.90;;;;;;4971757;28;20208;-66
2022/09/27 07:16:51;;;;;;;7.90;1.93;;;11.90;99.90;;;;;;4971527;28;20241;-66
2022/09/27 07:19:17;;;;;;;40.90;6.17;;;11.90;1.00;;;;;;4971606;28;20417;-66
2022/09/27 07:21:43;;;;;;;22.53;3.33;;;11.90;1.00;;;;;;4971118;28;20220;-67
2022/09/27 07:24:08;;;;;;;5.67;1.77;;;12.00;1.00;;;;;;4971390;28;20992;-66
2022/09/27 07:26:34;;;;;;;3.10;2.47;;;12.10;1.00;;;;;;4971441;28;20170;-67
2022/09/27 07:29:00;;;;;;;4.03;1.53;;;12.10;1.00;;;;;;4970747;28;20174;-67
2022/09/27 07:31:26;;;;;;;6.90;2.70;;;12.20;1.00;;;;;;4970445;28;20177;-67
2022/09/27 07:33:52;;;;;;;79.53;11.73;;;12.40;1.00;;;;;;4971985;28;20451;-67
2022/09/27 07:36:18;;;;;;;17.30;2.80;;;12.80;99.90;;;;;;4971929;28;20500;-66
2022/09/27 07:38:44;;;;;;;19.43;3.10;;;12.90;99.90;;;;;;4971568;28;20710;-66
2022/09/27 07:41:13;;;;;;;46.80;6.23;;;12.90;99.90;;;;;;4971379;28;20228;-66
2022/09/27 07:43:45;;;;;;;6.70;1.90;;;12.90;99.90;;;;;;4970924;28;20264;-67
2022/09/27 07:46:12;;;;;;;20.13;2.80;;;13.00;32.60;;;;;;4978925;28;20774;-67
2022/09/27 07:48:38;;;;;;;7.27;1.90;;;13.30;1.00;;;;;;4971096;28;20422;-66
2022/09/27 07:51:06;;;;;;;15.73;2.37;;;13.50;1.00;;;;;;4971450;28;20417;-66
2022/09/27 07:53:32;;;;;;;4.67;3.60;;;13.80;1.00;;;;;;4972194;28;20205;-66
2022/09/27 07:55:58;;;;;;;7.40;1.37;;;13.80;1.00;;;;;;4972539;28;20480;-66
2022/09/27 07:58:24;;;;;;;3.53;1.40;;;13.70;1.00;;;;;;4971020;28;20450;-67
2022/09/27 08:00:50;;;;;;;8.60;1.90;;;13.50;1.00;;;;;;4970558;28;20228;-66
2022/09/27 08:03:16;;;;;;;8.27;2.07;;;13.50;1.00;;;;;;4970737;28;20212;-67
2022/09/27 08:05:44;;;;;;;6.10;1.53;;;13.40;1.00;;;;;;4970705;28;20170;-67
2022/09/27 08:08:10;;;;;;;18.77;2.37;;;13.40;1.00;;;;;;4971064;28;20411;-67
2022/09/27 08:10:36;;;;;;;11.67;3.20;;;13.40;1.00;;;;;;4970807;28;20717;-67
2022/09/27 08:13:03;;;;;;;7.00;2.00;;;13.40;1.00;;;;;;4970268;28;20419;-66
2022/09/27 08:15:30;;;;;;;6.83;2.00;;;13.50;1.00;;;;;;4970833;28;20182;-67
2022/09/27 08:17:56;;;;;;;4.20;1.40;;;13.50;1.00;;;;;;4970594;28;20425;-67
2022/09/27 08:20:22;;;;;;;18.63;3.77;;;13.50;1.00;;;;;;4970202;28;20881;-68
2022/09/27 08:22:48;;;;;;;12.00;2.40;;;13.30;1.00;;;;;;4970116;28;20177;-67
2022/09/27 08:25:14;;;;;;;3.13;1.40;;;13.20;1.00;;;;;;4970783;28;20205;-66
2022/09/27 08:27:41;;;;;;;12.10;2.13;;;13.10;1.00;;;;;;4969886;28;20193;-67
2022/09/27 08:30:07;;;;;;;7.20;2.13;;;13.00;1.00;;;;;;4970075;28;20177;-67
2022/09/27 08:32:33;;;;;;;8.83;1.87;;;12.90;1.00;;;;;;4969796;28;20468;-66
2022/09/27 08:34:58;;;;;;;17.93;3.50;;;12.80;1.00;;;;;;4970249;28;20977;-67
2022/09/27 08:37:42;;;;;;;4.50;1.77;;;12.80;1.00;;;;;;4970120;28;20174;-66
2022/09/27 08:40:14;;;;;;;11.13;1.80;;;12.80;1.00;;;;;;4970223;28;20175;-64
2022/09/27 08:42:57;;;;;;;10.73;1.97;;;12.70;1.00;;;;;;4969227;28;20416;-67
2022/09/27 08:45:33;;;;;;;2.23;1.40;;;12.90;1.00;;;;;;4970231;28;20879;-66
2022/09/27 08:48:02;;;;;;;4.20;1.50;;;12.90;1.00;;;;;;4970493;28;20404;-67
2022/09/27 08:50:35;;;;;;;15.97;3.10;;;12.90;1.00;;;;;;4969443;28;20433;-66
2022/09/27 08:53:13;;;;;;;4.10;1.67;;;12.90;1.00;;;;;;4969853;28;20507;-67
2022/09/27 08:55:44;;;;;;;6.67;1.57;;;12.90;1.00;;;;;;4970365;28;20483;-65
2022/09/27 08:58:22;;;;;;;3.87;1.53;;;13.00;1.00;;;;;;4969422;28;20409;-67
2022/09/27 09:00:54;;;;;;;8.70;2.03;;;12.90;1.00;;;;;;4969401;28;20409;-67
2022/09/27 09:03:24;;;;;;;10.93;1.93;;;12.90;1.00;;;;;;4969810;28;20463;-67
2022/09/27 09:06:21;;;;;;;6.80;2.10;;;12.80;1.00;;;;;;4970386;28;20408;-66
2022/09/27 09:08:49;;;;;;;2.73;1.33;;;12.90;1.00;;;;;;4970312;28;20409;-66
2022/09/27 09:14:24;;;;;;;9.37;2.07;;;13.00;1.00;;;;;;4969798;28;20440;-66
2022/09/27 09:17:18;;;;;;;5.93;1.50;;;12.90;1.00;;;;;;4971747;28;20902;-66
2022/09/27 09:20:10;;;;;;;6.07;1.83;;;13.00;1.00;;;;;;4973675;28;20913;-66
2022/09/27 09:22:41;;;;;;;16.40;3.00;;;13.00;1.00;;;;;;4973083;28;20898;-66
2022/09/27 09:25:16;;;;;;;14.77;2.60;;;13.10;1.00;;;;;;4974093;28;20841;-67
2022/09/27 09:28:19;;;;;;;66.93;7.73;;;13.70;1.00;;;;;;4973224;28;20570;-68
2022/09/27 09:30:54;;;;;;;13.23;2.07;;;14.40;1.00;;;;;;4952074;28;20417;-67
2022/09/27 09:33:29;;;;;;;11.60;2.60;;;14.30;99.90;;;;;;4973204;28;20814;-67
2022/09/27 09:36:21;;;;;;;11.13;3.77;;;14.20;99.90;;;;;;4973207;28;20514;-66
2022/09/27 09:39:01;;;;;;;11.23;5.40;;;14.00;99.90;;;;;;4972915;28;20413;-67
2022/09/27 09:41:50;;;;;;;9.37;3.07;;;13.90;99.90;;;;;;4973342;28;20416;-66
2022/09/27 09:44:52;;;;;;;9.10;2.63;;;13.70;1.00;;;;;;4972920;28;20772;-67
2022/09/27 09:47:47;;;;;;;26.93;4.60;;;13.70;1.00;;;;;;4973334;28;20404;-66
2022/09/27 09:50:28;;;;;;;11.27;2.07;;;14.10;1.00;;;;;;4973222;28;20409;-67
2022/09/27 09:53:30;;;;;;;16.10;3.30;;;14.40;99.90;;;;;;4972922;28;20491;-67
2022/09/27 09:56:06;;;;;;;4.50;2.00;;;14.60;99.90;;;;;;4972892;28;20786;-67
2022/09/27 09:58:57;;;;;;;5.77;2.30;;;15.00;99.90;;;;;;4972825;28;20419;-67
2022/09/27 10:01:43;;;;;;;12.67;2.37;;;15.40;99.90;;;;;;4972355;28;20416;-67
2022/09/27 10:04:21;;;;;;;27.73;4.70;;;15.80;99.90;;;;;;4972609;28;20464;-66
2022/09/27 10:06:48;;;;;;;25.67;4.00;;;16.00;99.90;;;;;;4972624;28;20436;-66
2022/09/27 10:09:16;;;;;;;17.80;3.73;;;15.90;99.90;;;;;;4972682;28;20508;-67
2022/09/27 10:11:45;;;;;;;12.00;2.43;;;15.60;99.90;;;;;;4972138;28;20428;-67
2022/09/27 10:14:13;;;;;;;12.00;2.47;;;15.60;99.90;;;;;;4972044;28;20523;-68
2022/09/27 10:16:42;;;;;;;4.83;2.63;;;15.30;99.90;;;;;;4973022;28;20928;-66
2022/09/27 10:19:09;;;;;;;12.53;2.63;;;15.00;99.90;;;;;;4972677;28;20512;-67
2022/09/27 10:21:41;;;;;;;16.93;2.40;;;14.30;99.90;;;;;;4972509;28;20416;-69
2022/09/27 10:24:08;;;;;;;2.83;1.00;;;13.60;99.90;;;;;;4972741;28;20822;-67
2022/09/27 10:26:36;;;;;;;9.67;2.60;;;13.00;99.90;;;;;;4972925;28;20435;-67
2022/09/27 10:29:15;;;;;;;8.63;1.87;;;12.50;1.00;;;;;;4972285;28;20830;-67
2022/09/27 10:31:46;;;;;;;3.30;1.50;;;12.40;1.00;;;;;;4972982;28;20444;-66
2022/09/27 10:34:20;;;;;;;17.40;2.87;;;12.50;1.00;;;;;;4972847;28;20527;-67
2022/09/27 10:36:45;;;;;;;11.87;2.63;;;12.40;1.00;;;;;;4972882;28;20412;-66
2022/09/27 10:39:22;;;;;;;5.47;1.30;;;12.50;1.00;;;;;;4972937;28;20910;-66
2022/09/27 10:41:48;;;;;;;5.60;1.43;;;12.30;1.00;;;;;;4972356;28;20174;-67
2022/09/27 10:44:31;;;;;;;2.77;1.30;;;12.30;1.00;;;;;;4996817;28;20466;-67
2022/09/27 10:47:06;;;;;;;2.43;1.73;;;12.30;1.00;;;;;;5003814;28;20188;-66
2022/09/27 10:49:37;;;;;;;4.53;2.37;;;12.60;1.00;;;;;;4986482;28;20894;-66
2022/09/27 10:52:13;;;;;;;6.90;2.10;;;12.90;1.00;;;;;;4985735;28;20429;-66
2022/09/27 10:54:41;;;;;;;8.40;2.00;;;13.10;1.00;;;;;;4986151;28;20455;-66
2022/09/27 10:57:20;;;;;;;4.63;2.43;;;13.40;1.00;;;;;;5003232;28;20435;-66
2022/09/27 10:59:52;;;;;;;15.23;4.93;;;13.50;1.00;;;;;;4991271;28;20431;-66
2022/09/27 11:02:30;;;;;;;12.30;4.40;;;13.70;1.00;;;;;;5001043;28;20458;-67
2022/09/27 11:05:11;;;;;;;29.30;4.50;;;14.10;1.00;;;;;;4999283;28;20475;-66
2022/09/27 11:07:49;;;;;;;10.87;2.83;;;14.30;1.00;;;;;;4998828;28;20432;-67
2022/09/27 11:10:30;;;;;;;7.47;3.23;;;14.30;1.00;;;;;;5001152;28;20523;-68
2022/09/27 11:13:11;;;;;;;29.37;3.93;;;14.40;1.00;;;;;;4997958;28;20435;-68
2022/09/27 11:15:51;;;;;;;12.03;3.37;;;14.30;1.00;;;;;;5000712;28;20502;-66
2022/09/27 11:18:27;;;;;;;13.23;3.27;;;14.30;1.00;;;;;;5008864;28;20413;-66
2022/09/27 11:21:08;;;;;;;15.50;3.37;;;14.40;1.00;;;;;;5008558;28;20478;-66
2022/09/27 11:24:06;;;;;;;6.33;3.47;;;14.60;1.00;;;;;;5009044;28;20829;-67
2022/09/27 11:26:57;;;;;;;7.00;3.80;;;14.70;1.00;;;;;;4962532;28;20890;-66
2022/09/27 11:29:52;;;;;;;7.03;3.03;;;15.00;1.00;;;;;;4981514;28;20427;-67
2022/09/27 11:32:56;;;;;;;6.30;2.40;;;15.30;1.00;;;;;;4994321;28;20481;-67
2022/09/27 11:35:55;;;;;;;39.97;5.30;;;15.50;1.00;;;;;;5015191;28;20451;-65
2022/09/27 11:38:35;;;;;;;25.33;4.13;;;15.60;99.90;;;;;;4996020;28;20427;-66
2022/09/27 11:41:28;;;;;;;23.30;4.07;;;15.70;99.90;;;;;;5012573;28;20470;-66
2022/09/27 11:44:39;;;;;;;29.77;5.00;;;15.80;99.90;;;;;;5010006;28;20466;-67
2022/09/27 11:47:45;;;;;;;13.53;1.80;;;15.90;99.90;;;;;;4987509;28;20917;-66
2022/09/27 11:50:44;;;;;;;8.77;2.00;;;15.80;99.90;;;;;;5011467;28;20403;-65
2022/09/27 11:53:17;;;;;;;17.63;2.07;;;15.90;99.90;;;;;;5010540;28;20407;-67
2022/09/27 11:56:18;;;;;;;11.63;2.20;;;15.90;99.90;;;;;;4992840;28;20582;-65
2022/09/27 11:58:59;;;;;;;28.20;5.77;;;15.80;99.90;;;;;;5001615;28;20399;-66
2022/09/27 12:02:03;;;;;;;22.80;3.60;;;15.90;99.90;;;;;;5004005;28;20466;-67
2022/09/27 12:05:00;;;;;;;11.33;2.40;;;15.60;99.90;;;;;;4931529;29;21042;-66
2022/09/27 12:07:43;;;;;;;7.50;2.03;;;15.50;99.90;;;;;;4943485;29;20504;-66
2022/09/27 12:10:13;;;;;;;19.03;3.50;;;15.50;99.90;;;;;;4950170;29;20481;-66
2022/09/27 12:12:44;;;;;;;5.43;2.10;;;15.60;99.90;;;;;;4938653;28;20434;-66
2022/09/27 12:15:23;;;;;;;18.93;3.23;;;15.60;99.90;;;;;;4937284;29;20482;-67
2022/09/27 12:17:54;;;;;;;5.10;1.60;;;15.40;99.90;;;;;;4936281;29;20457;-66
2022/09/27 12:20:28;;;;;;;3.40;1.50;;;15.30;99.90;;;;;;4920183;29;20434;-67
2022/09/27 12:23:02;;;;;;;3.50;1.40;;;15.10;99.90;;;;;;4933444;29;20430;-67
2022/09/27 12:25:34;;;;;;;5.30;2.03;;;15.20;99.90;;;;;;4927417;29;20482;-67
2022/09/27 12:28:09;;;;;;;18.43;2.67;;;15.10;99.90;;;;;;4928549;29;20453;-67
2022/09/27 12:30:40;;;;;;;11.10;2.07;;;15.20;99.90;;;;;;4939801;29;20442;-65
2022/09/27 12:33:28;;;;;;;11.60;2.30;;;15.10;99.90;;;;;;4939362;29;20425;-67
2022/09/27 12:35:58;;;;;;;7.97;1.50;;;15.10;99.90;;;;;;4972762;28;20447;-65
2022/09/27 12:38:53;;;;;;;25.20;3.37;;;15.20;99.90;;;;;;4972706;28;20416;-67
2022/09/27 12:41:22;;;;;;;12.10;2.23;;;15.10;99.90;;;;;;4942014;28;20448;-67
2022/09/27 12:43:49;;;;;;;20.93;3.87;;;15.30;99.90;;;;;;4970035;28;20472;-67
2022/09/27 12:46:33;;;;;;;8.73;1.87;;;15.50;99.90;;;;;;4978546;28;20865;-66
2022/09/27 12:49:35;;;;;;;5.27;1.50;;;15.60;99.90;;;;;;5005344;28;20427;-67
2022/09/27 12:52:14;;;;;;;8.10;1.83;;;15.60;99.90;;;;;;5011024;28;20474;-67
2022/09/27 12:54:40;;;;;;;3.57;1.70;;;15.40;99.90;;;;;;4992337;28;20571;-67
2022/09/27 12:57:20;;;;;;;4.00;1.40;;;15.30;99.90;;;;;;5005450;28;20423;-66
2022/09/27 13:00:18;;;;;;;2.57;1.30;;;15.30;99.90;;;;;;5013489;28;20263;-68
2022/09/27 13:03:23;;;;;;;3.10;1.50;;;15.30;99.90;;;;;;4973984;28;20890;-67
2022/09/27 13:05:58;;;;;;;52.77;6.10;;;15.20;99.90;;;;;;4974561;28;20401;-67
2022/09/27 13:08:33;;;;;;;12.53;2.40;;;15.20;99.90;;;;;;4974136;28;20936;-66
2022/09/27 13:11:27;;;;;;;1.80;1.00;;;15.20;99.90;;;;;;4989267;28;20427;-67
2022/09/27 13:13:58;;;;;;;8.40;2.00;;;14.90;99.90;;;;;;4987016;28;20474;-67
2022/09/27 13:16:24;;;;;;;6.43;1.97;;;14.90;99.90;;;;;;5005714;28;20419;-70
2022/09/27 13:18:58;;;;;;;3.30;1.30;;;14.90;99.90;;;;;;5005877;28;20470;-68
2022/09/27 13:21:48;;;;;;;7.47;2.13;;;15.10;99.90;;;;;;4998047;28;20497;-67
2022/09/27 13:24:36;;;;;;;8.87;1.90;;;15.10;99.90;;;;;;4987404;28;21048;-66
2022/09/27 13:27:26;;;;;;;5.43;1.87;;;15.00;99.90;;;;;;4989513;28;20419;-67
2022/09/27 13:30:11;;;;;;;19.27;3.37;;;14.80;99.90;;;;;;4973103;28;20409;-67